createdAt,value
2019-05-30T00:00:11.309Z,12.30
2019-05-30T00:02:29.219Z,12.20
2019-05-30T00:04:57.958Z,12.20
2019-05-30T00:07:24.396Z,12.30
2019-05-30T00:09:54.247Z,12.50
2019-05-30T00:12:21.490Z,12.30
2019-05-30T00:14:49.060Z,12.40
2019-05-30T00:17:16.931Z,12.30
2019-05-30T00:19:44.583Z,12.20
2019-05-30T00:22:13.160Z,12.30
2019-05-30T00:24:40.766Z,12.30
2019-05-30T00:27:09.106Z,12.30
2019-05-30T00:29:36.679Z,12.30
2019-05-30T00:32:04.931Z,12.20
2019-05-30T00:34:31.879Z,12.20
2019-05-30T00:36:59.890Z,12.20
2019-05-30T00:39:27.343Z,12.10
2019-05-30T00:41:56.028Z,12.10
2019-05-30T00:44:23.288Z,12.20
2019-05-30T00:46:50.875Z,12.20
2019-05-30T00:49:18.449Z,12.20
2019-05-30T00:51:46.076Z,12.20
2019-05-30T00:54:13.652Z,12.20
2019-05-30T00:56:41.993Z,12.30
2019-05-30T00:59:09.615Z,12.20
2019-05-30T01:01:37.189Z,12.30
2019-05-30T01:04:05.010Z,12.40
2019-05-30T01:06:32.357Z,12.40
2019-05-30T01:09:01.179Z,12.30
2019-05-30T01:11:28.347Z,12.30
2019-05-30T01:13:57.001Z,12.20
2019-05-30T01:16:23.499Z,12.20
2019-05-30T01:18:51.665Z,12.20
2019-05-30T01:21:19.251Z,12.20
2019-05-30T01:23:46.844Z,12.30
2019-05-30T01:26:15.172Z,12.30
2019-05-30T01:28:43.564Z,12.30
2019-05-30T01:31:11.747Z,12.20
2019-05-30T01:33:38.715Z,12.20
2019-05-30T01:36:07.936Z,12.40
2019-05-30T01:38:35.447Z,12.40
2019-05-30T01:41:04.159Z,12.40
2019-05-30T01:43:30.676Z,12.40
2019-05-30T01:45:58.252Z,12.50
2019-05-30T01:48:25.826Z,12.60
2019-05-30T01:50:54.204Z,12.70
2019-05-30T01:53:22.546Z,12.60
2019-05-30T01:55:50.126Z,12.60
2019-05-30T01:58:17.729Z,12.60
2019-05-30T02:00:45.300Z,12.70
2019-05-30T02:03:12.926Z,12.80
2019-05-30T02:05:40.494Z,12.80
2019-05-30T02:08:10.162Z,12.70
2019-05-30T02:10:36.730Z,12.70
2019-05-30T02:13:05.453Z,12.70
2019-05-30T02:15:32.651Z,12.60
2019-05-30T02:18:01.468Z,12.60
2019-05-30T02:20:27.830Z,12.60
2019-05-30T02:22:55.401Z,12.60
2019-05-30T02:25:23.010Z,12.60
2019-05-30T02:27:50.582Z,12.60
2019-05-30T02:30:18.631Z,12.60
2019-05-30T02:32:46.200Z,12.60
2019-05-30T02:35:13.776Z,12.60
2019-05-30T02:37:41.387Z,12.60
2019-05-30T02:40:12.276Z,12.60
2019-05-30T02:42:36.545Z,12.60
2019-05-30T02:45:05.651Z,12.60
2019-05-30T02:47:31.749Z,12.60
2019-05-30T02:50:01.286Z,12.60
2019-05-30T02:52:26.897Z,12.60
2019-05-30T02:54:54.496Z,12.60
2019-05-30T02:57:22.083Z,12.60
2019-05-30T02:59:49.669Z,12.60
2019-05-30T03:02:17.912Z,12.60
2019-05-30T03:04:44.869Z,12.60
2019-05-30T03:07:13.059Z,12.70
2019-05-30T03:09:40.019Z,12.70
2019-05-30T03:12:09.069Z,12.70
2019-05-30T03:14:35.200Z,12.70
2019-05-30T03:17:04.783Z,12.90
2019-05-30T03:19:30.662Z,12.90
2019-05-30T03:21:58.330Z,12.90
2019-05-30T03:24:25.904Z,12.90
2019-05-30T03:26:53.486Z,13.00
2019-05-30T03:29:21.862Z,13.10
2019-05-30T03:31:50.230Z,13.10
2019-05-30T03:34:26.816Z,13.10
2019-05-30T03:36:45.413Z,13.10
2019-05-30T03:39:15.268Z,13.00
2019-05-30T03:41:40.550Z,13.00
2019-05-30T03:44:09.032Z,13.00
2019-05-30T03:46:41.487Z,13.00
2019-05-30T03:49:10.623Z,13.00
2019-05-30T03:51:36.765Z,13.00
2019-05-30T03:54:05.101Z,13.00
2019-05-30T03:56:40.598Z,13.00
2019-05-30T03:59:12.614Z,13.10
2019-05-30T04:01:53.856Z,13.20
2019-05-30T04:04:21.429Z,13.20
2019-05-30T04:06:49.015Z,13.20
2019-05-30T04:09:23.956Z,13.20
2019-05-30T04:11:52.835Z,13.20
2019-05-30T04:14:20.408Z,13.20
2019-05-30T04:16:48.018Z,13.20
2019-05-30T04:19:17.225Z,13.20
2019-05-30T04:21:43.933Z,13.20
2019-05-30T04:24:12.354Z,13.20
2019-05-30T04:26:39.876Z,13.30
2019-05-30T04:29:08.021Z,13.30
2019-05-30T04:31:35.327Z,13.30
2019-05-30T04:34:02.895Z,13.30
2019-05-30T04:36:31.279Z,13.30
2019-05-30T04:38:59.608Z,13.40
2019-05-30T04:41:27.177Z,13.40
2019-05-30T04:43:54.776Z,13.40
2019-05-30T04:46:23.138Z,13.60
2019-05-30T04:48:50.717Z,13.50
2019-05-30T04:51:20.838Z,13.60
2019-05-30T04:53:45.928Z,13.80
2019-05-30T04:56:14.603Z,13.70
2019-05-30T04:58:42.757Z,13.90
2019-05-30T05:01:11.020Z,13.90
2019-05-30T05:03:45.746Z,13.80
2019-05-30T05:06:05.434Z,13.80
2019-05-30T05:08:32.996Z,13.80
2019-05-30T05:11:00.566Z,13.80
2019-05-30T05:13:28.181Z,13.80
2019-05-30T05:15:56.514Z,13.80
2019-05-30T05:18:24.137Z,13.80
2019-05-30T05:20:51.718Z,13.80
2019-05-30T05:23:19.414Z,13.90
2019-05-30T05:25:59.695Z,13.90
2019-05-30T05:28:15.671Z,13.90
2019-05-30T05:30:42.094Z,14.00
2019-05-30T05:33:10.043Z,14.00
2019-05-30T05:35:37.621Z,14.00
2019-05-30T05:38:05.554Z,14.10
2019-05-30T05:40:33.126Z,14.20
2019-05-30T05:43:00.700Z,14.20
2019-05-30T05:45:28.841Z,14.20
2019-05-30T05:47:56.250Z,14.20
2019-05-30T05:50:24.613Z,14.20
2019-05-30T05:52:52.209Z,14.30
2019-05-30T05:55:20.876Z,14.30
2019-05-30T05:57:48.128Z,14.30
2019-05-30T06:00:16.832Z,14.30
2019-05-30T06:02:44.077Z,14.50
2019-05-30T06:05:11.702Z,14.50
2019-05-30T06:07:39.282Z,14.50
2019-05-30T06:10:06.853Z,14.70
2019-05-30T06:12:34.493Z,14.70
2019-05-30T06:15:02.492Z,14.70
2019-05-30T06:17:29.671Z,14.70
2019-05-30T06:19:58.435Z,14.70
2019-05-30T06:22:26.010Z,14.70
2019-05-30T06:24:53.596Z,14.70
2019-05-30T06:27:21.905Z,14.70
2019-05-30T06:29:48.775Z,14.70
2019-05-30T06:32:16.394Z,14.80
2019-05-30T06:34:43.970Z,14.80
2019-05-30T06:37:12.272Z,15.00
2019-05-30T06:39:39.162Z,15.10
2019-05-30T06:42:07.503Z,15.10
2019-05-30T06:44:35.102Z,15.20
2019-05-30T06:47:03.472Z,15.20
2019-05-30T06:49:31.143Z,15.20
2019-05-30T06:51:58.674Z,15.20
2019-05-30T06:54:27.728Z,15.20
2019-05-30T06:56:54.621Z,15.30
2019-05-30T06:59:23.378Z,15.30
2019-05-30T07:01:52.175Z,15.50
2019-05-30T07:04:18.635Z,15.50
2019-05-30T07:06:46.776Z,15.60
2019-05-30T07:09:14.131Z,15.60
2019-05-30T07:11:41.744Z,15.70
2019-05-30T07:14:10.489Z,15.80
2019-05-30T07:16:38.071Z,15.80
2019-05-30T07:19:06.529Z,15.80
2019-05-30T07:21:34.624Z,15.90
2019-05-30T07:24:02.192Z,16.00
2019-05-30T07:26:29.887Z,16.10
2019-05-30T07:29:00.553Z,16.20
2019-05-30T07:31:26.057Z,16.40
2019-05-30T07:33:52.565Z,16.50
2019-05-30T07:36:20.952Z,16.70
2019-05-30T07:38:49.291Z,16.80
2019-05-30T07:41:16.867Z,16.80
2019-05-30T07:43:44.484Z,16.90
2019-05-30T07:46:12.057Z,17.10
2019-05-30T07:48:39.674Z,17.20
2019-05-30T07:51:08.017Z,17.40
2019-05-30T07:53:35.584Z,17.40
2019-05-30T07:56:03.213Z,17.50
2019-05-30T07:58:31.128Z,17.60
2019-05-30T08:00:58.361Z,17.80
2019-05-30T08:03:26.852Z,17.90
2019-05-30T08:05:54.439Z,18.00
2019-05-30T08:08:22.777Z,18.10
2019-05-30T08:10:50.439Z,18.10
2019-05-30T08:13:18.020Z,18.20
2019-05-30T08:15:45.594Z,18.20
2019-05-30T08:18:13.766Z,18.20
2019-05-30T08:20:41.343Z,18.40
2019-05-30T08:23:10.116Z,18.40
2019-05-30T08:25:38.506Z,18.30
2019-05-30T08:28:06.044Z,18.30
2019-05-30T08:30:34.554Z,18.30
2019-05-30T08:33:02.008Z,18.20
2019-05-30T08:35:39.200Z,18.20
2019-05-30T08:37:57.964Z,18.10
2019-05-30T08:40:26.308Z,18.00
2019-05-30T08:42:53.897Z,18.00
2019-05-30T08:45:22.274Z,18.10
2019-05-30T08:47:50.624Z,18.10
2019-05-30T08:50:18.313Z,18.10
2019-05-30T08:52:46.664Z,18.10
2019-05-30T08:55:14.276Z,18.10
2019-05-30T08:57:41.869Z,18.20
2019-05-30T09:00:09.448Z,18.20
2019-05-30T09:02:37.329Z,18.30
2019-05-30T09:05:07.638Z,18.40
2019-05-30T09:07:36.408Z,18.40
2019-05-30T09:10:03.195Z,18.50
2019-05-30T09:12:30.799Z,18.50
2019-05-30T09:14:58.395Z,18.60
2019-05-30T09:17:26.027Z,18.60
2019-05-30T09:19:53.614Z,18.60
2019-05-30T09:22:23.939Z,18.70
2019-05-30T09:24:52.238Z,18.80
2019-05-30T09:27:19.823Z,18.80
2019-05-30T09:29:48.366Z,19.10
2019-05-30T09:32:15.808Z,19.10
2019-05-30T09:34:44.811Z,19.10
2019-05-30T09:37:10.971Z,19.00
2019-05-30T09:39:39.128Z,19.00
2019-05-30T09:42:06.205Z,18.90
2019-05-30T09:44:34.558Z,18.80
2019-05-30T09:47:02.161Z,18.80
2019-05-30T09:49:30.518Z,18.70
2019-05-30T09:51:58.173Z,18.60
2019-05-30T09:54:25.803Z,18.50
2019-05-30T09:56:57.011Z,18.50
2019-05-30T09:59:21.031Z,18.40
2019-05-30T10:01:50.023Z,18.40
2019-05-30T10:04:16.258Z,18.40
2019-05-30T10:06:44.663Z,18.40
2019-05-30T10:09:11.802Z,18.50
2019-05-30T10:11:39.408Z,18.60
2019-05-30T10:14:07.813Z,18.60
2019-05-30T10:16:35.428Z,18.60
2019-05-30T10:19:02.993Z,18.70
2019-05-30T10:21:30.611Z,18.80
2019-05-30T10:23:58.210Z,18.80
2019-05-30T10:26:25.888Z,19.00
2019-05-30T10:28:53.492Z,19.10
2019-05-30T10:31:21.104Z,19.40
2019-05-30T10:33:49.406Z,19.50
2019-05-30T10:36:19.717Z,19.70
2019-05-30T10:38:43.886Z,19.70
2019-05-30T10:41:11.512Z,19.80
2019-05-30T10:43:39.107Z,19.80
2019-05-30T10:46:06.702Z,19.80
2019-05-30T10:48:34.332Z,19.80
2019-05-30T10:51:01.912Z,20.00
2019-05-30T10:53:30.264Z,20.20
2019-05-30T10:55:57.894Z,20.10
2019-05-30T10:58:25.469Z,20.20
2019-05-30T11:00:53.747Z,20.10
2019-05-30T11:03:20.682Z,20.00
2019-05-30T11:05:55.030Z,19.90
2019-05-30T11:08:21.876Z,19.70
2019-05-30T11:10:50.599Z,19.60
2019-05-30T11:13:17.088Z,19.50
2019-05-30T11:15:44.671Z,19.40
2019-05-30T11:18:12.290Z,19.30
2019-05-30T11:20:40.058Z,19.20
2019-05-30T11:23:08.541Z,19.10
2019-05-30T11:25:36.161Z,19.00
2019-05-30T11:28:04.514Z,19.00
2019-05-30T11:30:32.101Z,19.00
2019-05-30T11:33:00.511Z,19.00
2019-05-30T11:35:28.097Z,19.00
2019-05-30T11:37:55.676Z,19.00
2019-05-30T11:40:23.331Z,19.00
2019-05-30T11:42:51.240Z,19.00
2019-05-30T11:45:18.495Z,19.00
2019-05-30T11:47:46.892Z,19.00
2019-05-30T11:50:14.475Z,19.00
2019-05-30T11:52:42.058Z,19.00
2019-05-30T11:55:09.697Z,19.10
2019-05-30T11:57:37.293Z,19.10
2019-05-30T12:00:07.544Z,19.10
2019-05-30T12:02:35.945Z,19.10
2019-05-30T12:05:03.537Z,19.10
2019-05-30T12:07:36.529Z,19.20
2019-05-30T12:09:59.003Z,19.20
2019-05-30T12:12:26.330Z,19.20
2019-05-30T12:14:55.190Z,19.20
2019-05-30T12:17:21.551Z,19.20
2019-05-30T12:19:49.126Z,19.10
2019-05-30T12:22:16.724Z,19.10
2019-05-30T12:24:45.594Z,19.10
2019-05-30T12:27:13.189Z,19.10
2019-05-30T12:29:40.772Z,19.20
2019-05-30T12:32:08.398Z,19.40
2019-05-30T12:34:36.744Z,19.50
2019-05-30T12:37:04.328Z,19.50
2019-05-30T12:39:32.331Z,19.60
2019-05-30T12:42:01.213Z,19.70
2019-05-30T12:44:27.835Z,19.80
2019-05-30T12:46:55.570Z,19.90
2019-05-30T12:49:23.920Z,20.00
2019-05-30T12:51:51.563Z,20.10
2019-05-30T12:54:19.163Z,20.10
2019-05-30T12:56:47.241Z,20.10
2019-05-30T12:59:14.871Z,20.10
2019-05-30T13:01:42.458Z,20.20
2019-05-30T13:04:10.040Z,20.20
2019-05-30T13:06:37.707Z,20.20
2019-05-30T13:09:05.671Z,20.20
2019-05-30T13:11:33.238Z,20.10
2019-05-30T13:14:00.865Z,20.30
2019-05-30T13:16:28.513Z,20.40
2019-05-30T13:18:56.154Z,20.40
2019-05-30T13:21:23.741Z,20.50
2019-05-30T13:23:51.383Z,20.70
2019-05-30T13:26:19.027Z,20.80
2019-05-30T13:28:47.036Z,20.90
2019-05-30T13:31:14.622Z,21.00
2019-05-30T13:33:42.283Z,21.10
2019-05-30T13:36:09.940Z,21.20
2019-05-30T13:38:37.784Z,21.40
2019-05-30T13:41:05.668Z,21.50
2019-05-30T13:43:33.799Z,21.80
2019-05-30T13:46:02.861Z,21.80
2019-05-30T13:48:29.048Z,22.10
2019-05-30T13:50:58.567Z,22.40
2019-05-30T13:53:25.840Z,22.50
2019-05-30T13:55:53.466Z,22.50
2019-05-30T13:58:21.833Z,22.60
2019-05-30T14:00:49.539Z,22.60
2019-05-30T14:03:17.836Z,22.60
2019-05-30T14:05:45.431Z,22.70
2019-05-30T14:08:21.169Z,22.80
2019-05-30T14:10:48.864Z,22.90
2019-05-30T14:13:16.397Z,23.10
2019-05-30T14:15:47.250Z,23.10
2019-05-30T14:18:14.839Z,23.00
2019-05-30T14:20:42.426Z,22.90
2019-05-30T14:23:10.094Z,22.90
2019-05-30T14:25:37.682Z,22.80
2019-05-30T14:28:05.693Z,22.70
2019-05-30T14:30:32.878Z,22.70
2019-05-30T14:33:01.988Z,22.80
2019-05-30T14:35:28.150Z,22.70
2019-05-30T14:37:55.707Z,22.70
2019-05-30T14:40:23.320Z,22.60
2019-05-30T14:42:50.951Z,22.50
2019-05-30T14:45:19.312Z,22.40
2019-05-30T14:47:46.898Z,22.40
2019-05-30T14:50:14.587Z,22.40
2019-05-30T14:52:42.170Z,22.40
2019-05-30T14:55:10.955Z,22.30
2019-05-30T14:57:37.446Z,22.30
2019-05-30T15:00:07.379Z,22.30
2019-05-30T15:02:33.454Z,22.30
2019-05-30T15:05:01.088Z,22.30
2019-05-30T15:07:28.671Z,22.20
2019-05-30T15:09:56.276Z,22.40
2019-05-30T15:12:24.706Z,22.50
2019-05-30T15:14:53.055Z,22.50
2019-05-30T15:17:20.641Z,22.50
2019-05-30T15:19:48.491Z,22.40
2019-05-30T15:22:18.382Z,22.30
2019-05-30T15:24:44.301Z,22.30
2019-05-30T15:27:12.694Z,22.20
2019-05-30T15:29:40.272Z,22.20
2019-05-30T15:32:08.190Z,22.10
2019-05-30T15:34:35.480Z,22.00
2019-05-30T15:37:03.074Z,22.00
2019-05-30T15:39:32.812Z,21.90
2019-05-30T15:41:58.290Z,21.90
2019-05-30T15:44:25.873Z,21.90
2019-05-30T15:46:53.506Z,21.90
2019-05-30T15:49:21.086Z,22.00
2019-05-30T15:51:48.666Z,22.00
2019-05-30T15:54:17.136Z,22.10
2019-05-30T15:56:44.242Z,22.20
2019-05-30T15:59:11.819Z,22.20
2019-05-30T16:01:39.447Z,22.30
2019-05-30T16:04:07.799Z,22.20
2019-05-30T16:06:35.403Z,22.20
2019-05-30T16:09:03.779Z,22.20
2019-05-30T16:11:31.367Z,22.20
2019-05-30T16:13:59.001Z,22.20
2019-05-30T16:16:39.461Z,22.10
2019-05-30T16:18:55.005Z,22.10
2019-05-30T16:21:22.635Z,22.10
2019-05-30T16:23:50.223Z,22.00
2019-05-30T16:26:17.965Z,22.10
2019-05-30T16:28:45.492Z,22.00
2019-05-30T16:31:13.874Z,21.80
2019-05-30T16:33:41.448Z,21.80
2019-05-30T16:36:09.683Z,21.70
2019-05-30T16:38:37.267Z,21.80
2019-05-30T16:41:05.623Z,21.60
2019-05-30T16:43:33.281Z,21.60
2019-05-30T16:46:00.852Z,21.50
2019-05-30T16:48:28.432Z,21.50
2019-05-30T16:50:56.051Z,21.50
2019-05-30T16:53:25.831Z,21.40
2019-05-30T16:55:51.309Z,21.30
2019-05-30T16:58:20.272Z,21.30
2019-05-30T17:00:47.236Z,21.20
2019-05-30T17:03:15.665Z,21.20
2019-05-30T17:05:42.455Z,21.10
2019-05-30T17:08:10.052Z,21.30
2019-05-30T17:10:37.739Z,21.30
2019-05-30T17:13:05.320Z,21.50
2019-05-30T17:15:32.904Z,21.70
2019-05-30T17:18:00.542Z,21.80
2019-05-30T17:20:28.127Z,22.00
2019-05-30T17:22:55.703Z,22.20
2019-05-30T17:25:23.329Z,22.20
2019-05-30T17:27:50.909Z,22.20
2019-05-30T17:30:19.493Z,22.10
2019-05-30T17:32:46.563Z,22.10
2019-05-30T17:35:20.093Z,22.20
2019-05-30T17:37:48.004Z,22.10
2019-05-30T17:40:15.630Z,22.00
2019-05-30T17:42:43.294Z,21.90
2019-05-30T17:45:10.915Z,21.80
2019-05-30T17:47:38.489Z,21.90
2019-05-30T17:50:06.121Z,21.80
2019-05-30T17:52:33.701Z,21.70
2019-05-30T17:55:01.296Z,21.60
2019-05-30T17:57:30.222Z,21.50
2019-05-30T17:59:56.893Z,21.50
2019-05-30T18:02:24.477Z,21.50
2019-05-30T18:04:52.108Z,21.40
2019-05-30T18:07:20.808Z,21.30
2019-05-30T18:09:47.288Z,21.20
2019-05-30T18:12:14.916Z,21.20
2019-05-30T18:14:42.500Z,21.10
2019-05-30T18:17:10.094Z,21.10
2019-05-30T18:19:38.048Z,20.90
2019-05-30T18:22:05.695Z,20.90
2019-05-30T18:24:36.586Z,20.80
2019-05-30T18:27:04.245Z,20.70
2019-05-30T18:29:32.230Z,20.60
2019-05-30T18:32:00.197Z,20.80
2019-05-30T18:34:28.429Z,20.80
2019-05-30T18:36:55.436Z,20.80
2019-05-30T18:39:23.034Z,20.70
2019-05-30T18:41:50.994Z,20.60
2019-05-30T18:44:19.349Z,20.50
2019-05-30T18:46:46.940Z,20.50
2019-05-30T18:49:15.478Z,20.50
2019-05-30T18:51:43.020Z,20.40
2019-05-30T18:54:10.611Z,20.30
2019-05-30T18:56:38.248Z,20.30
2019-05-30T18:59:05.828Z,20.20
2019-05-30T19:01:33.750Z,20.20
2019-05-30T19:04:01.953Z,20.10
2019-05-30T19:06:29.996Z,20.10
2019-05-30T19:08:57.032Z,20.00
2019-05-30T19:11:33.154Z,20.00
2019-05-30T19:13:57.174Z,20.00
2019-05-30T19:16:26.226Z,20.00
2019-05-30T19:18:52.345Z,19.90
2019-05-30T19:21:19.971Z,19.80
2019-05-30T19:23:47.561Z,19.70
2019-05-30T19:26:15.146Z,19.60
2019-05-30T19:28:42.781Z,19.60
2019-05-30T19:31:11.184Z,19.50
2019-05-30T19:33:38.764Z,19.60
2019-05-30T19:36:06.700Z,19.60
2019-05-30T19:38:35.380Z,19.50
2019-05-30T19:41:02.385Z,19.40
2019-05-30T19:43:29.951Z,19.40
2019-05-30T19:45:58.300Z,19.40
2019-05-30T19:48:25.938Z,19.40
2019-05-30T19:50:53.519Z,19.40
2019-05-30T19:53:21.100Z,19.30
2019-05-30T19:55:49.548Z,19.20
2019-05-30T19:58:17.148Z,19.10
2019-05-30T20:00:57.761Z,19.00
2019-05-30T20:03:12.419Z,19.00
2019-05-30T20:05:40.952Z,18.90
2019-05-30T20:08:07.641Z,18.90
2019-05-30T20:10:35.253Z,18.80
2019-05-30T20:13:02.826Z,18.80
2019-05-30T20:15:33.317Z,18.70
2019-05-30T20:18:00.254Z,18.70
2019-05-30T20:20:27.852Z,18.60
2019-05-30T20:22:55.466Z,18.60
2019-05-30T20:25:23.058Z,18.60
2019-05-30T20:27:50.745Z,18.50
2019-05-30T20:30:19.101Z,18.50
2019-05-30T20:32:47.222Z,18.40
2019-05-30T20:35:15.099Z,18.40
2019-05-30T20:37:43.002Z,18.40
2019-05-30T20:40:10.266Z,18.40
2019-05-30T20:42:39.027Z,18.40
2019-05-30T20:45:06.642Z,18.30
2019-05-30T20:47:36.008Z,18.20
2019-05-30T20:50:01.519Z,18.30
2019-05-30T20:52:29.092Z,18.20
2019-05-30T20:54:56.676Z,18.40
2019-05-30T20:57:24.366Z,18.40
2019-05-30T20:59:51.951Z,18.30
2019-05-30T21:02:19.678Z,18.30
2019-05-30T21:04:47.574Z,18.30
2019-05-30T21:07:14.737Z,18.20
2019-05-30T21:09:42.375Z,18.20
2019-05-30T21:12:10.785Z,18.10
2019-05-30T21:14:39.527Z,18.10
2019-05-30T21:17:06.701Z,18.10
2019-05-30T21:19:34.290Z,18.00
2019-05-30T21:22:02.077Z,18.00
2019-05-30T21:24:29.522Z,18.00
2019-05-30T21:26:57.116Z,17.90
2019-05-30T21:29:24.696Z,17.90
2019-05-30T21:31:53.147Z,17.90
2019-05-30T21:34:21.446Z,17.80
2019-05-30T21:36:49.795Z,17.80
2019-05-30T21:39:17.486Z,17.80
2019-05-30T21:41:46.298Z,17.80
2019-05-30T21:44:12.658Z,17.80
2019-05-30T21:46:40.526Z,17.80
2019-05-30T21:49:08.640Z,17.70
2019-05-30T21:51:36.232Z,17.70
2019-05-30T21:54:04.629Z,17.70
2019-05-30T21:56:32.222Z,17.70
2019-05-30T21:59:00.733Z,17.70
2019-05-30T22:01:28.317Z,17.70
2019-05-30T22:03:56.668Z,17.60
2019-05-30T22:06:24.296Z,17.60
2019-05-30T22:08:51.881Z,17.60
2019-05-30T22:11:19.466Z,17.60
2019-05-30T22:13:47.862Z,17.50
2019-05-30T22:16:16.220Z,17.50
2019-05-30T22:18:44.120Z,17.40
2019-05-30T22:21:11.989Z,17.40
2019-05-30T22:23:39.571Z,17.40
2019-05-30T22:26:07.156Z,17.40
2019-05-30T22:28:34.802Z,17.30
2019-05-30T22:31:02.386Z,17.30
2019-05-30T22:33:29.981Z,17.40
2019-05-30T22:35:58.452Z,17.30
2019-05-30T22:38:26.037Z,17.30
2019-05-30T22:40:54.381Z,17.20
2019-05-30T22:43:25.341Z,17.20
2019-05-30T22:45:50.237Z,17.10
2019-05-30T22:48:17.178Z,17.00
2019-05-30T22:50:44.798Z,17.00
2019-05-30T22:53:12.382Z,17.00
2019-05-30T22:55:39.978Z,16.90
2019-05-30T22:58:08.370Z,17.00
2019-05-30T23:00:35.965Z,17.00
2019-05-30T23:03:03.548Z,17.00
2019-05-30T23:05:31.169Z,16.90
2019-05-30T23:07:58.751Z,16.80
2019-05-30T23:10:26.338Z,16.90
2019-05-30T23:12:54.099Z,16.90
2019-05-30T23:15:21.571Z,16.80
2019-05-30T23:17:50.302Z,16.70
2019-05-30T23:20:16.782Z,16.70
2019-05-30T23:22:44.369Z,16.60
2019-05-30T23:25:11.993Z,16.50
2019-05-30T23:27:39.576Z,16.40
2019-05-30T23:30:07.171Z,16.40
2019-05-30T23:32:35.537Z,16.40
2019-05-30T23:35:03.887Z,16.30
2019-05-30T23:37:31.518Z,16.30
2019-05-30T23:39:59.102Z,16.20
2019-05-30T23:42:26.684Z,16.20
2019-05-30T23:44:55.350Z,16.10
2019-05-30T23:47:21.965Z,16.00
2019-05-30T23:49:49.876Z,16.10
2019-05-30T23:52:17.091Z,16.10
2019-05-30T23:54:44.688Z,16.00
2019-05-30T23:57:12.266Z,16.10
2019-05-30T23:59:39.876Z,16.00
